Terminal Aerodrome Forecast
Issued by NWS Brownsville, TX

Home | Current Version | Previous Version | Text Only | Print | Product List | Glossary On
Versions: 1 2 3 4 5 6 7 8 9 10 11 12 13 14 15 16 17
701
FTUS44 KBRO 162338
TAFHRL
TAF
KHRL 162338Z 1700/1724 31012KT P6SM OVC005
     FM170700 34005KT 4SM BR OVC003
     FM171100 32006KT 2SM BR OVC001
     FM171700 35004KT 5SM BR OVC004
     FM172000 08005KT P6SM OVC010=

USA.gov is the U.S. government's official web portal to all federal, state and local government web resources and services.